Time;durP1;ratioP1;P1;durP2;ratioP2;P2;SDS_P1;SDS_P2;PMS_P1;PMS_P2;Temp;Humidity;BMP_temperature;BMP_pressure;BME280_temperature;BME280_humidity;BME280_pressure;Samples;Min_cycle;Max_cycle;Signal;HPM_P1;HPM_P2
2023/01/08 00:00:51;;;;;;;0.83;0.77;;;;;;;9.16;83.02;99410.38;5070486;28;20240;-72
2023/01/08 00:03:16;;;;;;;0.57;0.37;;;;;;;9.16;82.87;99432.97;5070214;28;20178;-72
2023/01/08 00:05:42;;;;;;;0.30;0.30;;;;;;;9.20;83.02;99422.19;5070425;28;20178;-71
2023/01/08 00:08:07;;;;;;;0.33;0.33;;;;;;;9.16;83.50;99426.72;5070506;28;20496;-71
2023/01/08 00:10:36;;;;;;;0.93;0.93;;;;;;;9.13;83.79;99430.09;5070184;28;20404;-71
2023/01/08 00:13:02;;;;;;;0.43;0.43;;;;;;;9.10;83.99;99428.00;5070294;28;20206;-72
2023/01/08 00:15:29;;;;;;;0.70;0.70;;;;;;;9.09;83.94;99429.13;5070351;28;20171;-71
2023/01/08 00:17:54;;;;;;;1.03;0.97;;;;;;;9.08;84.15;99401.09;5072855;28;20181;-71
2023/01/08 00:20:20;;;;;;;1.47;1.37;;;;;;;9.11;83.74;99414.09;5074117;28;20174;-71
2023/01/08 00:22:47;;;;;;;0.20;0.20;;;;;;;9.09;84.05;99412.78;5073937;28;20269;-72
2023/01/08 00:25:13;;;;;;;0.33;0.33;;;;;;;9.00;84.29;99399.22;5072716;28;20185;-72
2023/01/08 00:27:38;;;;;;;0.93;0.93;;;;;;;9.02;84.44;99407.84;5073864;28;20813;-72
2023/01/08 00:30:04;;;;;;;0.10;0.10;;;;;;;9.04;84.92;99402.06;5073914;28;20202;-72
2023/01/08 00:32:29;;;;;;;1.10;1.00;;;;;;;9.03;84.71;99412.16;5073907;28;20258;-72
2023/01/08 00:34:55;;;;;;;0.00;0.00;;;;;;;8.99;84.79;99419.41;5073859;28;20649;-72
2023/01/08 00:37:20;;;;;;;0.50;0.50;;;;;;;8.98;84.74;99419.75;5073858;28;20210;-72
2023/01/08 00:39:45;;;;;;;0.10;0.10;;;;;;;8.98;84.81;99419.75;5073842;28;20706;-72
2023/01/08 00:42:11;;;;;;;0.83;0.83;;;;;;;8.98;85.44;99419.75;5073643;28;20170;-72
2023/01/08 00:44:36;;;;;;;0.03;0.03;;;;;;;8.99;85.57;99421.34;5073731;28;20175;-72
2023/01/08 00:47:01;;;;;;;0.00;0.00;;;;;;;8.93;85.06;99417.97;5073584;28;20193;-72
2023/01/08 00:49:26;;;;;;;0.50;0.50;;;;;;;8.84;85.54;99418.00;5073583;28;20467;-72
2023/01/08 00:51:52;;;;;;;0.03;0.03;;;;;;;8.80;85.89;99408.06;5073667;28;20178;-72
2023/01/08 00:54:17;;;;;;;0.37;0.37;;;;;;;8.81;86.10;99421.38;5073490;28;20652;-72
2023/01/08 00:56:42;;;;;;;0.20;0.20;;;;;;;8.86;86.35;99412.25;5073544;28;20187;-72
2023/01/08 00:59:08;;;;;;;0.00;0.00;;;;;;;8.70;86.69;99414.69;5073487;28;20179;-72
2023/01/08 01:01:33;;;;;;;0.00;0.00;;;;;;;8.76;86.74;99415.31;5073516;28;20345;-72
2023/01/08 01:03:59;;;;;;;0.10;0.10;;;;;;;8.72;87.06;99417.88;5073201;28;20187;-72
2023/01/08 01:06:24;;;;;;;0.00;0.00;;;;;;;8.70;87.37;99417.41;5073331;28;20163;-72
2023/01/08 01:08:49;;;;;;;0.00;0.00;;;;;;;8.80;87.21;99403.44;5073330;28;20289;-72
2023/01/08 01:11:23;;;;;;;0.00;0.00;;;;;;;8.86;87.30;99398.63;5072988;28;20170;-72
2023/01/08 01:13:49;;;;;;;0.00;0.00;;;;;;;8.90;86.84;99394.91;5073201;28;20174;-72
2023/01/08 01:16:14;;;;;;;0.10;0.10;;;;;;;8.87;87.07;99387.41;5073156;28;20638;-72
2023/01/08 01:18:40;;;;;;;0.00;0.00;;;;;;;8.85;86.91;99384.19;5073149;28;20185;-72
2023/01/08 01:21:19;;;;;;;0.00;0.00;;;;;;;8.81;86.82;99374.25;5073154;28;20171;-72
2023/01/08 01:23:45;;;;;;;5.43;0.50;;;;;;;8.89;86.78;99389.78;5073053;28;20178;-72
2023/01/08 01:26:16;;;;;;;0.73;0.47;;;;;;;8.97;86.69;99379.97;5072981;28;20221;-72
2023/01/08 01:28:41;;;;;;;1.77;1.67;;;;;;;9.00;86.13;99371.97;5071786;28;20213;-72
2023/01/08 01:31:10;;;;;;;0.73;0.73;;;;;;;9.02;85.79;99380.59;5072843;28;20178;-72
2023/01/08 01:33:36;;;;;;;0.33;0.33;;;;;;;9.07;85.70;99382.34;5072711;28;20175;-72
2023/01/08 01:36:02;;;;;;;0.90;0.60;;;;;;;9.05;85.82;99381.88;5071443;28;20649;-72
2023/01/08 01:38:28;;;;;;;0.57;0.57;;;;;;;9.05;85.97;99384.59;5072773;28;20511;-72
2023/01/08 01:40:53;;;;;;;0.17;0.17;;;;;;;8.99;86.08;99380.47;5072670;28;20173;-72
2023/01/08 01:43:41;;;;;;;0.00;0.00;;;;;;;9.00;86.05;99385.59;5072551;28;20219;-72
2023/01/08 01:46:36;;;;;;;0.83;0.83;;;;;;;9.07;86.32;99385.88;5072580;28;20206;-72
2023/01/08 01:49:18;;;;;;;0.50;0.47;;;;;;;9.08;85.77;99387.47;5072561;28;20230;-72
2023/01/08 01:51:48;;;;;;;0.93;0.40;;;;;;;9.13;85.87;99398.19;5072576;28;20220;-72
2023/01/08 01:54:14;;;;;;;0.00;0.00;;;;;;;9.13;85.82;99389.22;5072408;28;20262;-72
2023/01/08 01:56:40;;;;;;;1.10;0.53;;;;;;;9.23;85.33;99391.56;5072321;28;20250;-72
2023/01/08 01:59:05;;;;;;;1.70;1.53;;;;;;;9.31;85.30;99389.94;5072451;28;20171;-72
2023/01/08 02:01:32;;;;;;;1.40;1.30;;;;;;;9.29;84.90;99384.00;5072357;28;20517;-72
2023/01/08 02:03:57;;;;;;;0.30;0.30;;;;;;;9.27;84.83;99386.28;5072053;28;20298;-72
2023/01/08 02:06:42;;;;;;;0.50;0.50;;;;;;;9.25;84.81;99381.13;5072076;28;20645;-72
2023/01/08 02:09:34;;;;;;;0.93;0.93;;;;;;;9.30;84.86;99372.00;5071982;28;20206;-72
2023/01/08 02:12:17;;;;;;;0.90;0.90;;;;;;;9.30;84.92;99358.34;5072343;28;20166;-72
2023/01/08 02:15:07;;;;;;;0.50;0.50;;;;;;;9.30;84.92;99372.00;5070772;28;20174;-72
2023/01/08 02:17:51;;;;;;;0.90;0.60;;;;;;;9.27;84.96;99359.03;5073491;28;20526;-72
2023/01/08 02:20:27;;;;;;;1.00;1.00;;;;;;;9.23;85.19;99365.09;5073625;28;20672;-72
2023/01/08 02:22:59;;;;;;;1.27;1.17;;;;;;;9.28;85.39;99374.25;5072382;28;20260;-73
2023/01/08 02:26:06;;;;;;;3.77;1.63;;;;;;;9.25;85.52;99372.94;5071974;28;20178;-72
2023/01/08 02:28:38;;;;;;;1.67;1.30;;;;;;;9.29;85.53;99371.19;5063146;28;20603;-72
2023/01/08 02:31:05;;;;;;;1.60;1.37;;;;;;;9.35;84.88;99367.13;5071676;28;20190;-73
2023/01/08 02:33:31;;;;;;;0.43;0.43;;;;;;;9.35;84.96;99360.88;5071633;28;20192;-72
2023/01/08 02:36:13;;;;;;;1.40;0.93;;;;;;;9.35;85.21;99361.69;5071525;28;20178;-73
2023/01/08 02:38:47;;;;;;;0.30;0.30;;;;;;;9.32;85.22;99353.38;5071419;28;20186;-72
2023/01/08 02:41:14;;;;;;;0.40;0.40;;;;;;;9.31;85.08;99355.31;5071269;28;20821;-72
2023/01/08 02:43:48;;;;;;;0.90;0.90;;;;;;;9.32;85.77;99358.81;5071333;28;20175;-72
2023/01/08 02:46:17;;;;;;;0.70;0.70;;;;;;;9.32;85.53;99362.34;5071347;28;20513;-72
2023/01/08 02:48:59;;;;;;;0.43;0.43;;;;;;;9.36;85.41;99360.56;5071878;28;20202;-73
2023/01/08 02:51:29;;;;;;;5.10;1.33;;;;;;;9.40;85.28;99368.88;5071321;28;20202;-73
2023/01/08 02:53:59;;;;;;;0.87;0.87;;;;;;;9.40;85.36;99357.97;5071140;28;20175;-72
2023/01/08 02:57:08;;;;;;;1.70;1.60;;;;;;;9.45;85.34;99360.50;5071255;28;20209;-73
2023/01/08 02:59:35;;;;;;;0.93;0.57;;;;;;;9.42;85.10;99361.97;5041969;28;20324;-73
2023/01/08 03:02:02;;;;;;;0.70;0.70;;;;;;;9.45;85.27;99371.41;5071182;28;20178;-73
2023/01/08 03:04:30;;;;;;;0.37;0.23;;;;;;;9.46;85.50;99375.75;5070780;28;20193;-73
2023/01/08 03:06:56;;;;;;;0.83;0.80;;;;;;;9.51;85.58;99368.16;5071050;28;20185;-72
2023/01/08 03:09:21;;;;;;;0.70;0.20;;;;;;;9.54;85.33;99363.97;5071114;28;20210;-73
2023/01/08 03:11:54;;;;;;;1.00;0.73;;;;;;;9.54;85.22;99363.97;5070769;28;20200;-72
2023/01/08 03:14:27;;;;;;;0.47;0.47;;;;;;;9.56;84.91;99361.72;5070864;28;20167;-73
2023/01/08 03:17:11;;;;;;;0.83;0.77;;;;;;;9.58;85.50;99367.66;5071240;28;20626;-73
2023/01/08 03:19:41;;;;;;;1.50;1.40;;;;;;;9.61;85.33;99364.25;5070953;28;20221;-72
2023/01/08 03:22:13;;;;;;;0.10;0.10;;;;;;;9.61;85.32;99375.16;5070905;28;20656;-73
2023/01/08 03:24:41;;;;;;;0.10;0.10;;;;;;;9.63;85.30;99367.44;5069450;28;20174;-73
2023/01/08 03:27:12;;;;;;;0.40;0.40;;;;;;;9.59;85.63;99355.59;5070824;28;20178;-72
2023/01/08 03:29:39;;;;;;;0.10;0.10;;;;;;;9.63;85.41;99361.19;5070756;28;20199;-72
2023/01/08 03:32:10;;;;;;;2.87;0.30;;;;;;;9.65;85.82;99348.00;5071045;28;20194;-73
2023/01/08 03:34:38;;;;;;;1.93;1.13;;;;;;;9.68;85.56;99350.88;5070697;28;20501;-72
2023/01/08 03:37:06;;;;;;;0.00;0.00;;;;;;;9.67;85.23;99351.22;5070747;28;20174;-73
2023/01/08 03:39:39;;;;;;;0.67;0.67;;;;;;;9.62;86.09;99348.69;5070642;28;20211;-72
2023/01/08 03:42:07;;;;;;;1.13;1.07;;;;;;;9.64;86.04;99332.78;5070963;28;20544;-72
2023/01/08 03:44:32;;;;;;;0.77;0.77;;;;;;;9.60;85.98;99340.84;5070537;28;20646;-73
2023/01/08 03:46:57;;;;;;;1.23;1.13;;;;;;;9.58;86.34;99336.84;5070688;28;20223;-73
2023/01/08 03:49:26;;;;;;;1.70;1.53;;;;;;;9.59;86.55;99316.63;5070648;28;20241;-73
2023/01/08 03:51:51;;;;;;;1.23;1.13;;;;;;;9.61;85.96;99326.06;5071584;28;20719;-73
2023/01/08 03:54:19;;;;;;;0.20;0.20;;;;;;;9.61;86.49;99312.44;5074567;28;20170;-72
2023/01/08 03:56:44;;;;;;;0.70;0.70;;;;;;;9.60;86.45;99321.75;5074747;28;20170;-73
2023/01/08 03:59:12;;;;;;;1.93;1.10;;;;;;;9.58;86.74;99318.56;5074611;28;20197;-73
2023/01/08 04:01:38;;;;;;;0.50;0.50;;;;;;;9.55;86.98;99319.22;5074919;28;20170;-72
2023/01/08 04:04:03;;;;;;;1.03;1.03;;;;;;;9.56;86.67;99320.84;5074365;28;20182;-72
2023/01/08 04:06:28;;;;;;;0.53;0.53;;;;;;;9.54;87.02;99312.94;5074371;28;20166;-73
2023/01/08 04:08:54;;;;;;;0.17;0.17;;;;;;;9.56;87.08;99325.50;5074405;28;20558;-73
2023/01/08 04:11:19;;;;;;;0.00;0.00;;;;;;;9.53;87.25;99316.81;5074403;28;20253;-73
2023/01/08 04:13:44;;;;;;;0.00;0.00;;;;;;;9.52;87.37;99328.06;5074799;28;20174;-73
2023/01/08 04:16:10;;;;;;;0.10;0.10;;;;;;;9.52;87.45;99314.41;5074372;28;20171;-73
2023/01/08 04:18:35;;;;;;;0.00;0.00;;;;;;;9.53;87.60;99316.00;5074324;28;20243;-72
2023/01/08 04:21:00;;;;;;;0.23;0.23;;;;;;;9.52;87.60;99307.03;5074271;28;20174;-73
2023/01/08 04:23:26;;;;;;;0.00;0.00;;;;;;;9.49;87.64;99302.25;5074066;28;20634;-72
2023/01/08 04:25:51;;;;;;;0.70;0.70;;;;;;;9.49;87.55;99302.25;5074392;28;20171;-73
2023/01/08 04:28:17;;;;;;;4.70;0.77;;;;;;;9.51;87.79;99299.19;5074067;28;20198;-72
2023/01/08 04:30:42;;;;;;;0.40;0.10;;;;;;;9.53;87.55;99291.47;5074011;28;20186;-73
2023/01/08 04:33:07;;;;;;;0.47;0.47;;;;;;;9.46;87.78;99288.50;5074101;28;20232;-73
2023/01/08 04:35:33;;;;;;;0.00;0.00;;;;;;;9.35;88.04;99279.91;5074004;28;20734;-73
2023/01/08 04:37:58;;;;;;;0.00;0.00;;;;;;;9.29;89.32;99283.19;5073826;28;20543;-73
2023/01/08 04:40:23;;;;;;;0.00;0.00;;;;;;;9.21;89.58;99282.09;5073921;28;20630;-73
2023/01/08 04:42:48;;;;;;;0.00;0.00;;;;;;;9.31;89.31;99273.53;5073679;28;20179;-73
2023/01/08 04:45:14;;;;;;;0.63;0.63;;;;;;;9.34;88.88;99274.78;5073782;28;20258;-73
2023/01/08 04:47:39;;;;;;;0.00;0.00;;;;;;;9.24;89.00;99286.88;5073681;28;20179;-73
2023/01/08 04:50:05;;;;;;;0.00;0.00;;;;;;;9.14;89.77;99292.72;5073605;28;20175;-73
2023/01/08 04:52:30;;;;;;;0.40;0.40;;;;;;;9.19;89.83;99293.31;5073524;28;20704;-72
2023/01/08 04:54:55;;;;;;;0.00;0.00;;;;;;;9.13;89.90;99283.75;5073729;28;20178;-72
2023/01/08 04:57:21;;;;;;;0.00;0.00;;;;;;;9.18;89.66;99280.03;5072216;28;20221;-73
2023/01/08 04:59:46;;;;;;;0.00;0.00;;;;;;;9.18;89.81;99277.31;5073506;28;20186;-73
2023/01/08 05:02:12;;;;;;;0.40;0.40;;;;;;;9.16;89.82;99268.66;5073465;28;20183;-72
2023/01/08 05:04:38;;;;;;;0.00;0.00;;;;;;;9.07;90.00;99268.72;5072887;28;20191;-73
2023/01/08 05:07:03;;;;;;;0.00;0.00;;;;;;;9.03;90.69;99278.69;5073299;28;20677;-73
2023/01/08 05:09:29;;;;;;;0.13;0.13;;;;;;;9.05;91.03;99276.41;5073235;28;20566;-72
2023/01/08 05:11:54;;;;;;;0.00;0.00;;;;;;;9.09;91.20;99277.34;5072989;28;20179;-73
2023/01/08 05:14:19;;;;;;;0.00;0.00;;;;;;;8.98;91.61;99278.88;5073019;28;20259;-72
2023/01/08 05:16:45;;;;;;;0.43;0.43;;;;;;;9.02;91.42;99276.28;5073018;28;20175;-73
2023/01/08 05:19:10;;;;;;;0.67;0.67;;;;;;;9.07;91.51;99270.63;5073297;28;20262;-72
2023/01/08 05:21:36;;;;;;;0.00;0.00;;;;;;;9.09;91.47;99271.09;5072786;28;20694;-73
2023/01/08 05:24:01;;;;;;;0.00;0.00;;;;;;;9.06;91.39;99269.84;5073138;28;20171;-73
2023/01/08 05:26:26;;;;;;;0.00;0.00;;;;;;;8.96;92.18;99272.94;5073311;28;20232;-73
2023/01/08 05:28:52;;;;;;;0.00;0.00;;;;;;;9.06;93.14;99269.03;5072887;28;20217;-73
2023/01/08 05:31:17;;;;;;;0.00;0.00;;;;;;;9.00;93.36;99270.38;5072826;28;20202;-73
2023/01/08 05:33:42;;;;;;;0.00;0.00;;;;;;;8.95;93.70;99266.69;5072786;28;20200;-72
2023/01/08 05:36:10;;;;;;;0.00;0.00;;;;;;;8.95;94.30;99268.63;5072909;28;20178;-73
2023/01/08 05:38:36;;;;;;;0.20;0.20;;;;;;;8.92;95.31;99277.44;5072760;28;20174;-73
2023/01/08 05:41:01;;;;;;;0.87;0.80;;;;;;;8.93;95.91;99270.88;5072714;28;20179;-73
2023/01/08 05:43:27;;;;;;;0.00;0.00;;;;;;;8.78;96.85;99266.78;5072546;28;20187;-73
2023/01/08 05:45:52;;;;;;;0.00;0.00;;;;;;;8.80;98.09;99263.72;5072566;28;20174;-73
2023/01/08 05:48:17;;;;;;;0.40;0.40;;;;;;;8.78;98.42;99258.63;5072604;28;20290;-73
2023/01/08 05:50:42;;;;;;;0.00;0.00;;;;;;;8.84;99.52;99256.53;5072484;28;20232;-72
2023/01/08 05:53:08;;;;;;;0.00;0.00;;;;;;;8.84;100.00;99261.97;5072508;28;20170;-73
2023/01/08 05:55:34;;;;;;;0.00;0.00;;;;;;;8.85;100.00;99267.09;5071027;28;20290;-73
2023/01/08 05:58:01;;;;;;;0.40;0.40;;;;;;;8.78;100.00;99258.63;5072341;28;20179;-72
2023/01/08 06:00:27;;;;;;;0.00;0.00;;;;;;;8.76;100.00;99260.88;5072300;28;20593;-73
2023/01/08 06:02:52;;;;;;;2.37;1.20;;;;;;;8.70;100.00;99256.75;5072070;28;20189;-73
2023/01/08 06:05:17;;;;;;;0.83;0.83;;;;;;;8.73;100.00;99255.28;5072152;28;20182;-73
2023/01/08 06:07:42;;;;;;;1.00;0.63;;;;;;;8.72;100.00;99251.78;5072045;28;20203;-73
2023/01/08 06:10:08;;;;;;;4.50;0.93;;;;;;;8.71;100.00;99243.94;5071040;28;20243;-73
2023/01/08 06:12:33;;;;;;;0.10;0.10;;;;;;;8.70;100.00;99247.78;5071793;28;20171;-73
2023/01/08 06:14:58;;;;;;;0.20;0.20;;;;;;;8.70;100.00;99245.06;5071495;28;20543;-73
2023/01/08 06:17:24;;;;;;;1.40;1.33;;;;;;;8.66;100.00;99242.19;5072218;28;20259;-72
2023/01/08 06:19:49;;;;;;;0.23;0.23;;;;;;;8.60;100.00;99236.13;5071851;28;20187;-72
2023/01/08 06:22:14;;;;;;;0.10;0.10;;;;;;;8.48;100.00;99237.94;5071919;28;20249;-73
2023/01/08 06:24:39;;;;;;;0.10;0.10;;;;;;;8.50;100.00;99235.69;5071764;28;20178;-73
2023/01/08 06:27:05;;;;;;;0.10;0.10;;;;;;;8.56;100.00;99229.75;5071614;28;20634;-73
2023/01/08 06:29:30;;;;;;;0.00;0.00;;;;;;;8.60;100.00;99230.69;5071687;28;20738;-73
2023/01/08 06:31:55;;;;;;;0.00;0.00;;;;;;;8.57;100.00;99222.38;5071681;28;20641;-72
2023/01/08 06:34:21;;;;;;;0.00;0.00;;;;;;;8.60;100.00;99221.72;5071479;28;20211;-72
2023/01/08 06:36:46;;;;;;;1.87;1.13;;;;;;;8.58;100.00;99229.44;5071585;28;20641;-73
2023/01/08 06:39:12;;;;;;;0.33;0.33;;;;;;;8.61;100.00;99221.41;5071487;28;20170;-73
2023/01/08 06:41:37;;;;;;;0.50;0.50;;;;;;;8.60;100.00;99225.25;5071378;28;20174;-73
2023/01/08 06:44:02;;;;;;;0.10;0.10;;;;;;;8.55;100.00;99233.59;5071331;28;20178;-72
2023/01/08 06:46:28;;;;;;;0.33;0.33;;;;;;;8.57;100.00;99231.34;5071315;28;20171;-72
2023/01/08 06:48:53;;;;;;;0.00;0.00;;;;;;;8.61;100.00;99229.56;5071356;28;20415;-72
2023/01/08 06:51:18;;;;;;;0.00;0.00;;;;;;;8.58;100.00;99229.44;5071288;28;20178;-72
2023/01/08 06:53:46;;;;;;;0.07;0.07;;;;;;;8.54;100.00;99223.84;5071198;28;20201;-72
2023/01/08 06:56:12;;;;;;;0.00;0.00;;;;;;;8.48;100.00;99229.78;5071002;28;20182;-72
2023/01/08 06:58:38;;;;;;;0.00;0.00;;;;;;;8.46;100.00;99224.66;5071243;28;20236;-72
2023/01/08 07:01:03;;;;;;;0.13;0.13;;;;;;;8.54;100.00;99233.94;5071202;28;20730;-72
2023/01/08 07:03:29;;;;;;;0.20;0.10;;;;;;;8.55;100.00;99228.16;5070932;28;20225;-72
2023/01/08 07:05:55;;;;;;;0.10;0.10;;;;;;;8.56;100.00;99234.41;5071153;28;20254;-72
2023/01/08 07:08:21;;;;;;;0.10;0.10;;;;;;;8.52;100.00;99234.22;5070956;28;20198;-72
2023/01/08 07:10:46;;;;;;;0.10;0.10;;;;;;;8.52;100.00;99233.44;5070724;28;20394;-72
2023/01/08 07:13:12;;;;;;;0.10;0.10;;;;;;;8.50;100.00;99231.03;5071034;28;20171;-72
2023/01/08 07:15:38;;;;;;;2.97;2.77;;;;;;;8.45;100.00;99225.00;5071347;28;20522;-72
2023/01/08 07:18:05;;;;;;;0.20;0.20;;;;;;;8.44;100.00;99228.84;5070924;28;20170;-72
2023/01/08 07:20:32;;;;;;;0.43;0.20;;;;;;;8.41;100.00;99229.50;5069665;28;20175;-73
2023/01/08 07:23:04;;;;;;;0.00;0.00;;;;;;;8.41;100.00;99226.78;5070713;28;20232;-72
2023/01/08 07:25:30;;;;;;;0.23;0.23;;;;;;;8.38;100.00;99221.97;5070627;28;20209;-73
2023/01/08 07:27:56;;;;;;;0.03;0.03;;;;;;;8.41;100.00;99233.03;5069903;28;20198;-72
2023/01/08 07:30:21;;;;;;;0.20;0.20;;;;;;;8.40;100.00;99225.19;5070797;28;20171;-72
2023/01/08 07:32:47;;;;;;;0.13;0.10;;;;;;;8.35;100.00;99234.31;5070671;28;20547;-72
2023/01/08 07:35:12;;;;;;;0.40;0.40;;;;;;;8.36;100.00;99233.19;5070636;28;20638;-72
2023/01/08 07:37:41;;;;;;;0.30;0.30;;;;;;;8.40;100.00;99233.34;5070544;28;20178;-72
2023/01/08 07:40:10;;;;;;;0.00;0.00;;;;;;;8.31;100.00;99230.63;5070682;28;20678;-72
2023/01/08 07:42:36;;;;;;;1.77;1.67;;;;;;;8.35;100.00;99226.94;5070486;28;20206;-72
2023/01/08 07:45:04;;;;;;;0.20;0.20;;;;;;;8.37;100.00;99237.50;5070711;28;20202;-72
2023/01/08 07:47:29;;;;;;;0.00;0.00;;;;;;;8.32;100.00;99234.94;5071038;28;20236;-72
2023/01/08 07:49:54;;;;;;;0.00;0.00;;;;;;;8.32;100.00;99226.78;5070506;28;20202;-72
2023/01/08 07:52:21;;;;;;;0.00;0.00;;;;;;;8.33;100.00;99229.16;5070542;28;20162;-72
2023/01/08 07:54:46;;;;;;;3.30;1.10;;;;;;;8.39;100.00;99226.28;5069125;28;20178;-72
2023/01/08 07:57:11;;;;;;;0.00;0.00;;;;;;;8.34;100.00;99233.53;5070684;28;20240;-72
2023/01/08 07:59:36;;;;;;;0.07;0.07;;;;;;;8.45;100.00;99222.28;5070207;28;20174;-73
2023/01/08 08:02:02;;;;;;;0.00;0.00;;;;;;;8.39;100.00;99223.56;5070515;28;20178;-73
2023/01/08 08:04:27;;;;;;;0.17;0.17;;;;;;;8.40;100.00;99230.63;5070310;28;20193;-73
2023/01/08 08:06:53;;;;;;;0.00;0.00;;;;;;;8.42;100.00;99231.09;5070356;28;20622;-73
2023/01/08 08:09:19;;;;;;;0.03;0.03;;;;;;;8.35;100.00;99226.94;5070387;28;20634;-73
2023/01/08 08:11:44;;;;;;;0.10;0.00;;;;;;;8.34;100.00;99227.28;5070240;28;20213;-73
2023/01/08 08:14:09;;;;;;;0.00;0.00;;;;;;;8.37;100.00;99218.47;5070188;28;20290;-72
2023/01/08 08:16:35;;;;;;;0.30;0.30;;;;;;;8.39;100.00;99218.13;5070131;28;20213;-74
2023/01/08 08:19:00;;;;;;;0.00;0.00;;;;;;;8.43;100.00;99206.28;5070292;28;20183;-73
2023/01/08 08:21:28;;;;;;;0.80;0.80;;;;;;;8.45;100.00;99214.13;5070300;28;20300;-74
2023/01/08 08:23:53;;;;;;;0.40;0.40;;;;;;;8.49;100.00;99224.00;5069967;28;20705;-73
2023/01/08 08:26:18;;;;;;;0.20;0.20;;;;;;;8.48;100.00;99218.91;5069483;28;20265;-73
2023/01/08 08:28:44;;;;;;;0.20;0.20;;;;;;;8.48;100.00;99211.53;5066469;28;20240;-74
2023/01/08 08:31:09;;;;;;;0.00;0.00;;;;;;;8.46;100.00;99212.97;5068751;28;20620;-73
2023/01/08 08:33:34;;;;;;;0.00;0.00;;;;;;;8.51;100.00;99213.59;5069189;28;20626;-73
2023/01/08 08:36:00;;;;;;;1.20;0.50;;;;;;;8.51;100.00;99218.22;5069496;28;20229;-74
2023/01/08 08:38:25;;;;;;;1.33;0.40;;;;;;;8.52;100.00;99222.56;5071412;28;20171;-73
2023/01/08 08:40:51;;;;;;;1.10;0.93;;;;;;;8.49;100.00;99229.44;5073525;28;20182;-73
2023/01/08 08:43:17;;;;;;;0.30;0.30;;;;;;;8.53;100.00;99215.97;5072994;28;20178;-73
2023/01/08 08:45:42;;;;;;;0.00;0.00;;;;;;;8.53;100.00;99210.53;5073097;28;20198;-74
2023/01/08 08:48:08;;;;;;;0.00;0.00;;;;;;;8.47;100.00;99204.50;5073131;28;20198;-74
2023/01/08 08:50:34;;;;;;;0.00;0.00;;;;;;;8.59;100.00;99204.59;5073229;28;20193;-74
2023/01/08 08:53:00;;;;;;;0.00;0.00;;;;;;;8.56;100.00;99199.81;5073188;28;20252;-73
2023/01/08 08:55:26;;;;;;;0.00;0.00;;;;;;;8.58;100.00;99194.03;5073633;28;20175;-74
2023/01/08 08:57:51;;;;;;;0.00;0.00;;;;;;;8.65;100.00;99189.66;5073381;28;20186;-71
2023/01/08 09:00:17;;;;;;;0.00;0.00;;;;;;;8.70;100.00;99187.88;5073475;28;20634;-74
2023/01/08 09:02:42;;;;;;;0.00;0.00;;;;;;;8.73;100.00;99173.59;5073283;28;20209;-74
2023/01/08 09:05:08;;;;;;;0.63;0.63;;;;;;;8.61;100.00;99179.75;5073249;28;20330;-74
2023/01/08 09:07:33;;;;;;;0.00;0.00;;;;;;;8.64;100.00;99171.72;5073057;28;20205;-74
2023/01/08 09:09:58;;;;;;;0.00;0.00;;;;;;;8.67;100.00;99180.34;5072068;28;20217;-73
2023/01/08 09:12:24;;;;;;;0.00;0.00;;;;;;;8.70;100.00;99191.41;5073081;28;20641;-73
2023/01/08 09:14:50;;;;;;;0.73;0.63;;;;;;;8.69;100.00;99187.09;5073032;28;20232;-73
2023/01/08 09:17:15;;;;;;;0.00;0.00;;;;;;;8.68;100.00;99177.34;5073175;28;20741;-73
2023/01/08 09:19:41;;;;;;;0.00;0.00;;;;;;;8.70;100.00;99171.56;5073103;28;20261;-73
2023/01/08 09:22:06;;;;;;;0.70;0.70;;;;;;;8.75;100.00;99176.78;5071830;28;20269;-73
2023/01/08 09:24:31;;;;;;;0.50;0.50;;;;;;;8.78;100.00;99182.38;5071727;28;20167;-73
2023/01/08 09:26:57;;;;;;;0.10;0.10;;;;;;;8.82;100.00;99188.75;5073011;28;20253;-72
2023/01/08 09:29:23;;;;;;;0.00;0.00;;;;;;;8.86;100.00;99180.72;5071640;28;20206;-72
2023/01/08 09:31:48;;;;;;;0.00;0.00;;;;;;;8.91;100.00;99194.94;5072946;28;20187;-73
2023/01/08 09:34:14;;;;;;;0.30;0.30;;;;;;;8.91;100.00;99197.66;5072688;28;20170;-73
2023/01/08 09:36:39;;;;;;;0.00;0.00;;;;;;;8.90;100.00;99190.63;5071625;28;20862;-73
2023/01/08 09:39:04;;;;;;;0.13;0.10;;;;;;;8.97;100.00;99192.00;5072741;28;20175;-74
2023/01/08 09:41:33;;;;;;;0.33;0.33;;;;;;;9.01;100.00;99184.78;5072871;28;20177;-73
2023/01/08 09:44:01;;;;;;;0.00;0.00;;;;;;;9.00;100.00;99194.09;5072565;28;20173;-73
2023/01/08 09:46:27;;;;;;;0.40;0.40;;;;;;;9.00;100.00;99189.44;5072526;28;20171;-73
2023/01/08 09:48:58;;;;;;;0.17;0.10;;;;;;;8.99;100.00;99187.06;5071745;28;20203;-73
2023/01/08 09:51:30;;;;;;;0.03;0.03;;;;;;;8.97;100.00;99192.84;5071640;28;20174;-73
2023/01/08 09:53:56;;;;;;;0.20;0.20;;;;;;;8.94;100.00;99197.00;5069752;28;20166;-73
2023/01/08 09:56:22;;;;;;;0.07;0.07;;;;;;;8.97;100.00;99194.75;5072955;28;20171;-73
2023/01/08 09:58:53;;;;;;;0.20;0.20;;;;;;;8.96;100.00;99191.22;5075080;28;20178;-73
2023/01/08 10:01:21;;;;;;;0.10;0.10;;;;;;;8.97;100.00;99186.56;5052315;28;20163;-73
2023/01/08 10:04:04;;;;;;;0.00;0.00;;;;;;;8.93;100.00;99189.97;5052190;28;20187;-73
2023/01/08 10:06:30;;;;;;;0.00;0.00;;;;;;;8.99;100.00;99184.34;5058054;28;20312;-73
2023/01/08 10:08:56;;;;;;;0.70;0.70;;;;;;;8.99;100.00;99181.63;5069151;28;20260;-73
2023/01/08 10:11:23;;;;;;;0.30;0.30;;;;;;;9.01;100.00;99184.78;5071976;28;20167;-73
2023/01/08 10:13:52;;;;;;;0.50;0.50;;;;;;;8.92;100.00;99176.66;5071934;28;20524;-73
2023/01/08 10:16:29;;;;;;;0.20;0.20;;;;;;;9.00;100.00;99180.47;5069364;28;20174;-73
2023/01/08 10:18:54;;;;;;;0.90;0.90;;;;;;;9.00;100.00;99183.19;5071721;28;20190;-73
2023/01/08 10:21:28;;;;;;;0.00;0.00;;;;;;;9.00;100.00;99188.66;5071939;28;20321;-74
2023/01/08 10:23:53;;;;;;;0.00;0.00;;;;;;;8.99;100.00;99184.34;5071777;28;20270;-73
2023/01/08 10:26:38;;;;;;;0.00;0.00;;;;;;;9.00;100.00;99175.03;5071803;28;20259;-73
2023/01/08 10:29:18;;;;;;;0.00;0.00;;;;;;;9.05;100.00;99169.38;5071801;28;20729;-73
2023/01/08 10:31:57;;;;;;;0.00;0.00;;;;;;;9.13;100.00;99171.25;5069097;28;20186;-73
2023/01/08 10:34:37;;;;;;;0.00;0.00;;;;;;;9.07;100.00;99172.56;5068857;28;20257;-74
2023/01/08 10:37:14;;;;;;;0.00;0.00;;;;;;;9.15;100.00;99166.25;5071611;28;20175;-76
2023/01/08 10:39:46;;;;;;;0.00;0.00;;;;;;;9.19;100.00;99178.06;5071567;28;20186;-74
2023/01/08 10:42:14;;;;;;;0.00;0.00;;;;;;;9.15;100.00;99180.69;5071535;28;20570;-73
2023/01/08 10:44:57;;;;;;;0.00;0.00;;;;;;;9.23;100.00;99187.16;5071319;28;20316;-73
2023/01/08 10:47:26;;;;;;;0.40;0.40;;;;;;;9.24;100.00;99184.09;5071369;28;20174;-73
2023/01/08 10:49:52;;;;;;;0.10;0.10;;;;;;;9.27;100.00;99179.94;5071043;28;20222;-73
2023/01/08 10:52:25;;;;;;;0.20;0.10;;;;;;;9.28;100.00;99178.81;5071272;28;20673;-73
2023/01/08 10:54:51;;;;;;;0.00;0.00;;;;;;;9.30;100.00;99175.75;5071220;28;20182;-73
2023/01/08 10:57:23;;;;;;;0.20;0.20;;;;;;;9.30;100.00;99164.84;5070663;28;20174;-73
2023/01/08 10:59:48;;;;;;;0.00;0.00;;;;;;;9.31;100.00;99167.25;5070849;28;20316;-73
2023/01/08 11:02:40;;;;;;;0.10;0.10;;;;;;;9.36;100.00;99163.50;5070438;28;20653;-72
2023/01/08 11:05:10;;;;;;;0.30;0.10;;;;;;;9.38;100.00;99169.41;5068602;28;20198;-72
2023/01/08 11:07:35;;;;;;;0.10;0.10;;;;;;;9.39;100.00;99157.38;5070568;28;20682;-72
2023/01/08 11:10:02;;;;;;;0.20;0.20;;;;;;;9.39;100.00;99146.47;5070575;28;20331;-73
2023/01/08 11:12:39;;;;;;;0.00;0.00;;;;;;;9.40;100.00;99126.25;5070298;28;20170;-73
2023/01/08 11:15:33;;;;;;;0.00;0.00;;;;;;;9.44;100.00;99138.09;5068941;28;20197;-73
2023/01/08 11:18:13;;;;;;;0.27;0.27;;;;;;;9.54;100.00;99143.91;5068316;28;20163;-73
2023/01/08 11:20:40;;;;;;;0.00;0.00;;;;;;;9.59;100.00;99132.00;5067878;28;20220;-74
2023/01/08 11:23:17;;;;;;;0.00;0.00;;;;;;;9.57;100.00;99126.09;5070285;28;20928;-75
2023/01/08 11:26:13;;;;;;;2.30;0.53;;;;;;;9.61;100.00;99137.13;5068585;28;20178;-75
2023/01/08 11:28:41;;;;;;;0.30;0.30;;;;;;;9.63;100.00;99137.59;5058587;28;20198;-73
2023/01/08 11:31:18;;;;;;;0.40;0.40;;;;;;;9.68;100.00;99126.44;5070385;28;20657;-74
2023/01/08 11:33:46;;;;;;;0.47;0.27;;;;;;;9.69;100.00;99123.41;5070631;28;20239;-73
2023/01/08 11:36:24;;;;;;;0.10;0.10;;;;;;;9.70;100.00;99121.47;5070691;28;20179;-74
2023/01/08 11:38:49;;;;;;;0.20;0.10;;;;;;;9.76;100.00;99126.38;5070867;28;20197;-72
2023/01/08 11:41:27;;;;;;;0.20;0.10;;;;;;;9.75;98.26;99110.34;5069356;28;20202;-73